sensor_id;sensor_type;location;lat;lon;timestamp;temperature;humidity
54518;DHT22;40423;53.176;6.002;2023-07-31T00:00:29;17.60;99.90
54518;DHT22;40423;53.176;6.002;2023-07-31T00:02:55;17.70;99.90
54518;DHT22;40423;53.176;6.002;2023-07-31T00:05:21;17.60;99.90
54518;DHT22;40423;53.176;6.002;2023-07-31T00:07:47;17.60;99.90
54518;DHT22;40423;53.176;6.002;2023-07-31T00:10:12;17.60;99.90
54518;DHT22;40423;53.176;6.002;2023-07-31T00:12:39;17.60;99.90
54518;DHT22;40423;53.176;6.002;2023-07-31T00:15:07;17.60;99.90
54518;DHT22;40423;53.176;6.002;2023-07-31T00:17:32;17.60;99.90
54518;DHT22;40423;53.176;6.002;2023-07-31T00:19:58;17.60;99.90
54518;DHT22;40423;53.176;6.002;2023-07-31T00:22:24;17.60;99.90
54518;DHT22;40423;53.176;6.002;2023-07-31T00:24:51;17.60;99.90
54518;DHT22;40423;53.176;6.002;2023-07-31T00:27:16;17.50;99.90
54518;DHT22;40423;53.176;6.002;2023-07-31T00:29:42;17.50;99.90
54518;DHT22;40423;53.176;6.002;2023-07-31T00:32:08;17.50;99.90
54518;DHT22;40423;53.176;6.002;2023-07-31T00:34:34;17.50;99.90
54518;DHT22;40423;53.176;6.002;2023-07-31T00:36:59;17.50;99.90
54518;DHT22;40423;53.176;6.002;2023-07-31T00:39:25;17.50;99.90
54518;DHT22;40423;53.176;6.002;2023-07-31T00:41:51;17.50;99.90
54518;DHT22;40423;53.176;6.002;2023-07-31T00:44:16;17.50;99.90
54518;DHT22;40423;53.176;6.002;2023-07-31T00:46:42;17.50;99.90
54518;DHT22;40423;53.176;6.002;2023-07-31T00:49:08;17.50;99.90
54518;DHT22;40423;53.176;6.002;2023-07-31T00:51:34;17.50;99.90
54518;DHT22;40423;53.176;6.002;2023-07-31T00:54:00;17.50;99.90
54518;DHT22;40423;53.176;6.002;2023-07-31T00:56:27;17.50;99.90
54518;DHT22;40423;53.176;6.002;2023-07-31T00:58:54;17.50;99.90
54518;DHT22;40423;53.176;6.002;2023-07-31T01:01:20;17.50;99.90
54518;DHT22;40423;53.176;6.002;2023-07-31T01:03:47;17.60;99.90
54518;DHT22;40423;53.176;6.002;2023-07-31T01:09:16;17.60;99.90
54518;DHT22;40423;53.176;6.002;2023-07-31T01:11:53;17.50;99.90
54518;DHT22;40423;53.176;6.002;2023-07-31T01:14:19;17.50;99.90
54518;DHT22;40423;53.176;6.002;2023-07-31T01:16:44;17.50;99.90
54518;DHT22;40423;53.176;6.002;2023-07-31T01:19:11;17.50;99.90
54518;DHT22;40423;53.176;6.002;2023-07-31T01:22:16;17.50;99.90
54518;DHT22;40423;53.176;6.002;2023-07-31T01:27:59;17.50;99.90
54518;DHT22;40423;53.176;6.002;2023-07-31T01:30:32;17.40;99.90
54518;DHT22;40423;53.176;6.002;2023-07-31T01:33:01;17.30;99.90
54518;DHT22;40423;53.176;6.002;2023-07-31T01:35:33;17.30;99.90
54518;DHT22;40423;53.176;6.002;2023-07-31T01:37:59;17.40;99.90
54518;DHT22;40423;53.176;6.002;2023-07-31T01:40:25;17.30;99.90
54518;DHT22;40423;53.176;6.002;2023-07-31T01:42:51;17.30;99.90
54518;DHT22;40423;53.176;6.002;2023-07-31T01:45:17;17.30;99.90
54518;DHT22;40423;53.176;6.002;2023-07-31T01:47:42;17.30;99.90
54518;DHT22;40423;53.176;6.002;2023-07-31T01:50:08;17.30;99.90
54518;DHT22;40423;53.176;6.002;2023-07-31T01:52:34;17.30;99.90
54518;DHT22;40423;53.176;6.002;2023-07-31T01:55:00;17.20;99.90
54518;DHT22;40423;53.176;6.002;2023-07-31T01:57:26;17.20;99.90
54518;DHT22;40423;53.176;6.002;2023-07-31T01:59:51;17.20;99.90
54518;DHT22;40423;53.176;6.002;2023-07-31T02:02:22;17.20;99.90
54518;DHT22;40423;53.176;6.002;2023-07-31T02:04:48;17.20;99.90
54518;DHT22;40423;53.176;6.002;2023-07-31T02:07:14;17.30;99.90
54518;DHT22;40423;53.176;6.002;2023-07-31T02:09:40;17.30;99.90
54518;DHT22;40423;53.176;6.002;2023-07-31T02:12:06;17.20;99.90
54518;DHT22;40423;53.176;6.002;2023-07-31T02:14:34;17.30;99.90
54518;DHT22;40423;53.176;6.002;2023-07-31T02:17:00;17.20;99.90
54518;DHT22;40423;53.176;6.002;2023-07-31T02:19:26;17.20;99.90
54518;DHT22;40423;53.176;6.002;2023-07-31T02:21:51;17.20;99.90
54518;DHT22;40423;53.176;6.002;2023-07-31T02:24:17;17.20;99.90
54518;DHT22;40423;53.176;6.002;2023-07-31T02:26:43;17.20;99.90
54518;DHT22;40423;53.176;6.002;2023-07-31T02:29:09;17.20;99.90
54518;DHT22;40423;53.176;6.002;2023-07-31T02:31:34;17.20;99.90
54518;DHT22;40423;53.176;6.002;2023-07-31T02:34:00;17.20;99.90
54518;DHT22;40423;53.176;6.002;2023-07-31T02:36:26;17.20;99.90
54518;DHT22;40423;53.176;6.002;2023-07-31T02:38:51;17.20;99.90
54518;DHT22;40423;53.176;6.002;2023-07-31T02:41:17;17.20;99.90
54518;DHT22;40423;53.176;6.002;2023-07-31T02:43:43;17.20;99.90
54518;DHT22;40423;53.176;6.002;2023-07-31T02:46:09;17.20;99.90
54518;DHT22;40423;53.176;6.002;2023-07-31T02:48:34;17.20;99.90
54518;DHT22;40423;53.176;6.002;2023-07-31T02:51:00;17.20;99.90
54518;DHT22;40423;53.176;6.002;2023-07-31T02:53:26;17.10;99.90
54518;DHT22;40423;53.176;6.002;2023-07-31T02:55:52;17.10;99.90
54518;DHT22;40423;53.176;6.002;2023-07-31T02:58:17;17.10;99.90
54518;DHT22;40423;53.176;6.002;2023-07-31T03:00:44;17.10;99.90
54518;DHT22;40423;53.176;6.002;2023-07-31T03:03:10;17.10;99.90
54518;DHT22;40423;53.176;6.002;2023-07-31T03:05:36;17.10;99.90
54518;DHT22;40423;53.176;6.002;2023-07-31T03:08:02;17.10;99.90
54518;DHT22;40423;53.176;6.002;2023-07-31T03:10:27;17.10;99.90
54518;DHT22;40423;53.176;6.002;2023-07-31T03:12:53;17.10;99.90
54518;DHT22;40423;53.176;6.002;2023-07-31T03:15:19;17.00;99.90
54518;DHT22;40423;53.176;6.002;2023-07-31T03:17:44;17.00;99.90
54518;DHT22;40423;53.176;6.002;2023-07-31T03:20:10;17.00;99.90
54518;DHT22;40423;53.176;6.002;2023-07-31T03:22:36;17.00;99.90
54518;DHT22;40423;53.176;6.002;2023-07-31T03:25:03;17.00;99.90
54518;DHT22;40423;53.176;6.002;2023-07-31T03:27:29;17.00;99.90
54518;DHT22;40423;53.176;6.002;2023-07-31T03:29:54;17.00;99.90
54518;DHT22;40423;53.176;6.002;2023-07-31T03:32:20;17.00;99.90
54518;DHT22;40423;53.176;6.002;2023-07-31T03:34:46;17.00;99.90
54518;DHT22;40423;53.176;6.002;2023-07-31T03:37:11;17.00;99.90
54518;DHT22;40423;53.176;6.002;2023-07-31T03:39:37;17.00;99.90
54518;DHT22;40423;53.176;6.002;2023-07-31T03:42:03;17.00;99.90
54518;DHT22;40423;53.176;6.002;2023-07-31T03:44:29;17.00;99.90
54518;DHT22;40423;53.176;6.002;2023-07-31T03:46:55;16.90;99.90
54518;DHT22;40423;53.176;6.002;2023-07-31T03:49:20;16.90;99.90
54518;DHT22;40423;53.176;6.002;2023-07-31T03:51:46;16.90;99.90
54518;DHT22;40423;53.176;6.002;2023-07-31T03:54:12;16.90;99.90
54518;DHT22;40423;53.176;6.002;2023-07-31T03:56:38;16.90;99.90
54518;DHT22;40423;53.176;6.002;2023-07-31T03:59:04;16.90;99.90
54518;DHT22;40423;53.176;6.002;2023-07-31T04:01:30;16.90;99.90
54518;DHT22;40423;53.176;6.002;2023-07-31T04:03:56;16.90;99.90
54518;DHT22;40423;53.176;6.002;2023-07-31T04:06:21;16.90;99.90
54518;DHT22;40423;53.176;6.002;2023-07-31T04:08:47;16.90;99.90
54518;DHT22;40423;53.176;6.002;2023-07-31T04:11:13;16.90;99.90
54518;DHT22;40423;53.176;6.002;2023-07-31T04:13:39;16.90;99.90
54518;DHT22;40423;53.176;6.002;2023-07-31T04:16:04;16.90;99.90
54518;DHT22;40423;53.176;6.002;2023-07-31T04:18:31;16.90;99.90
54518;DHT22;40423;53.176;6.002;2023-07-31T04:20:58;17.00;99.90
54518;DHT22;40423;53.176;6.002;2023-07-31T04:23:25;16.90;99.90
54518;DHT22;40423;53.176;6.002;2023-07-31T04:25:50;17.00;99.90
54518;DHT22;40423;53.176;6.002;2023-07-31T04:28:16;17.00;99.90
54518;DHT22;40423;53.176;6.002;2023-07-31T04:30:42;17.00;99.90
54518;DHT22;40423;53.176;6.002;2023-07-31T04:33:08;17.00;99.90
54518;DHT22;40423;53.176;6.002;2023-07-31T04:35:33;17.00;99.90
54518;DHT22;40423;53.176;6.002;2023-07-31T04:37:59;17.00;99.90
54518;DHT22;40423;53.176;6.002;2023-07-31T04:40:25;17.00;99.90
54518;DHT22;40423;53.176;6.002;2023-07-31T04:42:51;17.00;99.90
54518;DHT22;40423;53.176;6.002;2023-07-31T04:45:16;17.00;99.90
54518;DHT22;40423;53.176;6.002;2023-07-31T04:47:42;17.00;99.90
54518;DHT22;40423;53.176;6.002;2023-07-31T04:50:08;17.00;99.90
54518;DHT22;40423;53.176;6.002;2023-07-31T04:52:34;16.90;99.90
54518;DHT22;40423;53.176;6.002;2023-07-31T04:55:00;16.90;99.90
54518;DHT22;40423;53.176;6.002;2023-07-31T04:57:25;16.90;99.90
54518;DHT22;40423;53.176;6.002;2023-07-31T04:59:51;17.00;99.90
54518;DHT22;40423;53.176;6.002;2023-07-31T05:02:17;17.00;99.90
54518;DHT22;40423;53.176;6.002;2023-07-31T05:04:42;17.00;99.90
54518;DHT22;40423;53.176;6.002;2023-07-31T05:07:08;17.00;99.90
54518;DHT22;40423;53.176;6.002;2023-07-31T05:09:34;17.00;99.90
54518;DHT22;40423;53.176;6.002;2023-07-31T05:12:00;17.00;99.90
54518;DHT22;40423;53.176;6.002;2023-07-31T05:14:26;16.90;99.90
54518;DHT22;40423;53.176;6.002;2023-07-31T05:16:52;16.90;99.90
54518;DHT22;40423;53.176;6.002;2023-07-31T05:19:18;16.90;99.90
54518;DHT22;40423;53.176;6.002;2023-07-31T05:21:44;16.90;99.90
54518;DHT22;40423;53.176;6.002;2023-07-31T05:24:10;16.90;99.90
54518;DHT22;40423;53.176;6.002;2023-07-31T05:26:36;16.90;99.90
54518;DHT22;40423;53.176;6.002;2023-07-31T05:29:03;16.90;99.90
54518;DHT22;40423;53.176;6.002;2023-07-31T05:31:29;17.00;99.90
54518;DHT22;40423;53.176;6.002;2023-07-31T05:33:55;17.00;99.90
54518;DHT22;40423;53.176;6.002;2023-07-31T05:36:20;17.00;99.90
54518;DHT22;40423;53.176;6.002;2023-07-31T05:38:46;17.00;99.90
54518;DHT22;40423;53.176;6.002;2023-07-31T05:41:12;17.00;99.90
54518;DHT22;40423;53.176;6.002;2023-07-31T05:43:38;17.10;99.90
54518;DHT22;40423;53.176;6.002;2023-07-31T05:46:04;17.10;99.90
54518;DHT22;40423;53.176;6.002;2023-07-31T05:48:29;17.10;99.90
54518;DHT22;40423;53.176;6.002;2023-07-31T05:50:55;17.10;99.90
54518;DHT22;40423;53.176;6.002;2023-07-31T05:53:21;17.10;99.90
54518;DHT22;40423;53.176;6.002;2023-07-31T05:55:47;17.20;99.90
54518;DHT22;40423;53.176;6.002;2023-07-31T05:58:12;17.10;99.90
54518;DHT22;40423;53.176;6.002;2023-07-31T06:00:38;17.10;99.90
54518;DHT22;40423;53.176;6.002;2023-07-31T06:03:04;17.20;99.90
54518;DHT22;40423;53.176;6.002;2023-07-31T06:05:29;17.20;99.90
54518;DHT22;40423;53.176;6.002;2023-07-31T06:07:56;17.20;99.90
54518;DHT22;40423;53.176;6.002;2023-07-31T06:10:21;17.20;99.90
54518;DHT22;40423;53.176;6.002;2023-07-31T06:12:47;17.30;99.90
54518;DHT22;40423;53.176;6.002;2023-07-31T06:15:13;17.20;99.90
54518;DHT22;40423;53.176;6.002;2023-07-31T06:17:39;17.30;99.90
54518;DHT22;40423;53.176;6.002;2023-07-31T06:20:06;17.30;99.90
54518;DHT22;40423;53.176;6.002;2023-07-31T06:22:32;17.30;99.90
54518;DHT22;40423;53.176;6.002;2023-07-31T06:24:58;17.30;99.90
54518;DHT22;40423;53.176;6.002;2023-07-31T06:27:24;17.40;99.90
54518;DHT22;40423;53.176;6.002;2023-07-31T06:29:50;17.40;99.90
54518;DHT22;40423;53.176;6.002;2023-07-31T06:32:15;17.40;99.90
54518;DHT22;40423;53.176;6.002;2023-07-31T06:34:41;17.50;99.90
54518;DHT22;40423;53.176;6.002;2023-07-31T06:37:07;17.50;99.90
54518;DHT22;40423;53.176;6.002;2023-07-31T06:39:32;17.50;99.90
54518;DHT22;40423;53.176;6.002;2023-07-31T06:41:58;17.50;99.90
54518;DHT22;40423;53.176;6.002;2023-07-31T06:44:24;17.50;99.90
54518;DHT22;40423;53.176;6.002;2023-07-31T06:46:49;17.60;99.90
54518;DHT22;40423;53.176;6.002;2023-07-31T06:49:15;17.60;99.90
54518;DHT22;40423;53.176;6.002;2023-07-31T06:51:41;17.60;99.90
54518;DHT22;40423;53.176;6.002;2023-07-31T06:54:08;17.60;99.90
54518;DHT22;40423;53.176;6.002;2023-07-31T06:56:34;17.60;99.90
54518;DHT22;40423;53.176;6.002;2023-07-31T06:59:00;17.60;99.90
54518;DHT22;40423;53.176;6.002;2023-07-31T07:01:25;17.60;99.90
54518;DHT22;40423;53.176;6.002;2023-07-31T07:03:51;17.70;99.90
54518;DHT22;40423;53.176;6.002;2023-07-31T07:06:17;17.70;99.90
54518;DHT22;40423;53.176;6.002;2023-07-31T07:08:43;17.80;99.90
54518;DHT22;40423;53.176;6.002;2023-07-31T07:11:09;17.80;99.90
54518;DHT22;40423;53.176;6.002;2023-07-31T07:13:35;17.80;99.90
54518;DHT22;40423;53.176;6.002;2023-07-31T07:16:00;17.80;99.90
54518;DHT22;40423;53.176;6.002;2023-07-31T07:18:26;17.80;99.90
54518;DHT22;40423;53.176;6.002;2023-07-31T07:20:53;17.80;99.90
54518;DHT22;40423;53.176;6.002;2023-07-31T07:23:20;17.90;99.90
54518;DHT22;40423;53.176;6.002;2023-07-31T07:25:47;17.90;99.90
54518;DHT22;40423;53.176;6.002;2023-07-31T07:28:13;17.90;99.90
54518;DHT22;40423;53.176;6.002;2023-07-31T07:30:39;17.90;99.90
54518;DHT22;40423;53.176;6.002;2023-07-31T07:33:05;17.90;99.90
54518;DHT22;40423;53.176;6.002;2023-07-31T07:35:33;17.90;99.90
54518;DHT22;40423;53.176;6.002;2023-07-31T07:38:00;17.90;99.90
54518;DHT22;40423;53.176;6.002;2023-07-31T07:40:26;17.90;99.90
54518;DHT22;40423;53.176;6.002;2023-07-31T07:42:52;17.90;99.90
54518;DHT22;40423;53.176;6.002;2023-07-31T07:45:17;18.00;99.90
54518;DHT22;40423;53.176;6.002;2023-07-31T07:47:43;18.00;99.90
54518;DHT22;40423;53.176;6.002;2023-07-31T07:50:09;18.00;99.90
54518;DHT22;40423;53.176;6.002;2023-07-31T07:52:35;18.00;99.90
54518;DHT22;40423;53.176;6.002;2023-07-31T07:55:00;18.00;99.90
54518;DHT22;40423;53.176;6.002;2023-07-31T07:57:33;18.10;99.90
54518;DHT22;40423;53.176;6.002;2023-07-31T07:59:58;18.10;99.90
54518;DHT22;40423;53.176;6.002;2023-07-31T08:02:24;18.10;99.90
54518;DHT22;40423;53.176;6.002;2023-07-31T08:04:50;18.10;99.90
54518;DHT22;40423;53.176;6.002;2023-07-31T08:07:16;18.00;99.90
54518;DHT22;40423;53.176;6.002;2023-07-31T08:09:42;18.00;99.90
54518;DHT22;40423;53.176;6.002;2023-07-31T08:12:08;18.00;99.90
54518;DHT22;40423;53.176;6.002;2023-07-31T08:14:33;18.10;99.90
54518;DHT22;40423;53.176;6.002;2023-07-31T08:17:00;18.10;99.90
54518;DHT22;40423;53.176;6.002;2023-07-31T08:19:26;18.20;99.90
54518;DHT22;40423;53.176;6.002;2023-07-31T08:21:51;18.20;99.90
54518;DHT22;40423;53.176;6.002;2023-07-31T08:24:17;18.20;99.90
54518;DHT22;40423;53.176;6.002;2023-07-31T08:26:43;18.30;99.90
54518;DHT22;40423;53.176;6.002;2023-07-31T08:29:08;18.30;99.90
54518;DHT22;40423;53.176;6.002;2023-07-31T08:31:34;18.30;99.90
54518;DHT22;40423;53.176;6.002;2023-07-31T08:34:00;18.30;99.90
54518;DHT22;40423;53.176;6.002;2023-07-31T08:36:26;18.30;99.90
54518;DHT22;40423;53.176;6.002;2023-07-31T08:38:52;18.30;99.90
54518;DHT22;40423;53.176;6.002;2023-07-31T08:41:18;18.40;99.90
54518;DHT22;40423;53.176;6.002;2023-07-31T08:43:45;18.40;99.90
54518;DHT22;40423;53.176;6.002;2023-07-31T08:46:11;18.40;99.90
54518;DHT22;40423;53.176;6.002;2023-07-31T08:48:37;18.40;99.90
54518;DHT22;40423;53.176;6.002;2023-07-31T08:51:06;18.50;99.90
54518;DHT22;40423;53.176;6.002;2023-07-31T08:53:35;18.40;99.90
54518;DHT22;40423;53.176;6.002;2023-07-31T08:56:02;18.40;99.90
54518;DHT22;40423;53.176;6.002;2023-07-31T08:58:31;18.60;99.90
54518;DHT22;40423;53.176;6.002;2023-07-31T09:01:00;18.70;99.90
54518;DHT22;40423;53.176;6.002;2023-07-31T09:03:26;18.70;99.90
54518;DHT22;40423;53.176;6.002;2023-07-31T09:05:53;18.80;99.90
54518;DHT22;40423;53.176;6.002;2023-07-31T09:08:21;18.80;99.90
54518;DHT22;40423;53.176;6.002;2023-07-31T09:11:02;18.80;99.90
54518;DHT22;40423;53.176;6.002;2023-07-31T09:13:30;18.80;99.90
54518;DHT22;40423;53.176;6.002;2023-07-31T09:15:56;18.80;99.90
54518;DHT22;40423;53.176;6.002;2023-07-31T09:18:22;19.00;99.90
54518;DHT22;40423;53.176;6.002;2023-07-31T09:21:06;19.00;99.90
54518;DHT22;40423;53.176;6.002;2023-07-31T09:23:43;19.10;99.90
54518;DHT22;40423;53.176;6.002;2023-07-31T09:26:09;19.00;99.90
54518;DHT22;40423;53.176;6.002;2023-07-31T09:28:34;18.90;99.90
54518;DHT22;40423;53.176;6.002;2023-07-31T09:31:00;18.90;99.90
54518;DHT22;40423;53.176;6.002;2023-07-31T09:33:26;18.90;99.90
54518;DHT22;40423;53.176;6.002;2023-07-31T09:35:51;18.90;99.90
54518;DHT22;40423;53.176;6.002;2023-07-31T09:38:18;18.90;99.90
54518;DHT22;40423;53.176;6.002;2023-07-31T09:40:46;18.90;99.90
54518;DHT22;40423;53.176;6.002;2023-07-31T09:43:21;18.90;99.90
54518;DHT22;40423;53.176;6.002;2023-07-31T09:45:47;18.90;99.90
54518;DHT22;40423;53.176;6.002;2023-07-31T09:48:18;19.00;99.90
54518;DHT22;40423;53.176;6.002;2023-07-31T09:50:48;19.00;99.90
54518;DHT22;40423;53.176;6.002;2023-07-31T09:53:15;19.10;99.90
54518;DHT22;40423;53.176;6.002;2023-07-31T09:55:41;19.20;99.90
54518;DHT22;40423;53.176;6.002;2023-07-31T09:58:09;19.10;99.90
54518;DHT22;40423;53.176;6.002;2023-07-31T10:00:36;19.20;99.90
54518;DHT22;40423;53.176;6.002;2023-07-31T10:03:05;19.20;99.90
54518;DHT22;40423;53.176;6.002;2023-07-31T10:05:50;19.00;99.90
54518;DHT22;40423;53.176;6.002;2023-07-31T10:08:18;19.00;99.90
54518;DHT22;40423;53.176;6.002;2023-07-31T10:10:45;19.10;99.90
54518;DHT22;40423;53.176;6.002;2023-07-31T10:13:12;19.10;99.90
54518;DHT22;40423;53.176;6.002;2023-07-31T10:15:39;19.10;99.90
54518;DHT22;40423;53.176;6.002;2023-07-31T10:18:07;19.10;99.90
54518;DHT22;40423;53.176;6.002;2023-07-31T10:20:34;19.20;99.90
54518;DHT22;40423;53.176;6.002;2023-07-31T10:23:01;19.40;99.90
54518;DHT22;40423;53.176;6.002;2023-07-31T10:25:27;19.50;99.90
54518;DHT22;40423;53.176;6.002;2023-07-31T10:27:54;19.60;99.90
54518;DHT22;40423;53.176;6.002;2023-07-31T10:30:27;19.60;99.90
54518;DHT22;40423;53.176;6.002;2023-07-31T10:32:55;19.70;99.90
54518;DHT22;40423;53.176;6.002;2023-07-31T10:35:21;19.50;99.90
54518;DHT22;40423;53.176;6.002;2023-07-31T10:37:50;19.40;99.90
54518;DHT22;40423;53.176;6.002;2023-07-31T10:40:23;19.60;99.90
54518;DHT22;40423;53.176;6.002;2023-07-31T10:42:54;19.60;99.90
54518;DHT22;40423;53.176;6.002;2023-07-31T10:45:33;19.70;99.90
54518;DHT22;40423;53.176;6.002;2023-07-31T10:48:03;19.80;99.90
54518;DHT22;40423;53.176;6.002;2023-07-31T10:50:30;19.80;99.90
54518;DHT22;40423;53.176;6.002;2023-07-31T10:52:58;19.80;99.90
54518;DHT22;40423;53.176;6.002;2023-07-31T10:55:27;19.70;99.90
54518;DHT22;40423;53.176;6.002;2023-07-31T10:57:54;19.50;99.90
54518;DHT22;40423;53.176;6.002;2023-07-31T11:00:26;19.20;99.90
54518;DHT22;40423;53.176;6.002;2023-07-31T11:03:02;19.20;99.90
54518;DHT22;40423;53.176;6.002;2023-07-31T11:08:21;19.30;99.90
54518;DHT22;40423;53.176;6.002;2023-07-31T11:13:27;19.40;99.90
54518;DHT22;40423;53.176;6.002;2023-07-31T11:15:52;19.30;99.90
54518;DHT22;40423;53.176;6.002;2023-07-31T11:18:18;19.40;99.90
54518;DHT22;40423;53.176;6.002;2023-07-31T11:20:44;19.50;99.90
54518;DHT22;40423;53.176;6.002;2023-07-31T11:23:10;19.10;99.90
54518;DHT22;40423;53.176;6.002;2023-07-31T11:25:38;19.20;99.90
54518;DHT22;40423;53.176;6.002;2023-07-31T11:28:07;19.20;99.90
54518;DHT22;40423;53.176;6.002;2023-07-31T11:30:33;19.10;99.90
54518;DHT22;40423;53.176;6.002;2023-07-31T11:33:02;19.10;99.90
54518;DHT22;40423;53.176;6.002;2023-07-31T11:35:30;19.00;99.90
54518;DHT22;40423;53.176;6.002;2023-07-31T11:37:55;19.00;99.90
54518;DHT22;40423;53.176;6.002;2023-07-31T11:40:21;19.00;99.90
54518;DHT22;40423;53.176;6.002;2023-07-31T11:42:47;19.10;99.90
54518;DHT22;40423;53.176;6.002;2023-07-31T11:45:13;19.10;99.90
54518;DHT22;40423;53.176;6.002;2023-07-31T11:47:38;19.30;99.90
54518;DHT22;40423;53.176;6.002;2023-07-31T11:50:05;19.40;99.90
54518;DHT22;40423;53.176;6.002;2023-07-31T11:52:40;19.30;99.90
54518;DHT22;40423;53.176;6.002;2023-07-31T11:55:07;19.30;99.90
54518;DHT22;40423;53.176;6.002;2023-07-31T11:57:36;19.40;99.90
54518;DHT22;40423;53.176;6.002;2023-07-31T12:00:03;19.40;99.90
54518;DHT22;40423;53.176;6.002;2023-07-31T12:02:30;19.40;99.90
54518;DHT22;40423;53.176;6.002;2023-07-31T12:04:55;19.30;99.90
54518;DHT22;40423;53.176;6.002;2023-07-31T12:07:21;19.50;99.90
54518;DHT22;40423;53.176;6.002;2023-07-31T12:09:51;19.50;99.90
54518;DHT22;40423;53.176;6.002;2023-07-31T12:12:25;19.60;99.90
54518;DHT22;40423;53.176;6.002;2023-07-31T12:14:51;19.70;99.90
54518;DHT22;40423;53.176;6.002;2023-07-31T12:17:19;19.80;99.90
54518;DHT22;40423;53.176;6.002;2023-07-31T12:19:48;19.80;99.90
54518;DHT22;40423;53.176;6.002;2023-07-31T12:22:15;19.60;99.90
54518;DHT22;40423;53.176;6.002;2023-07-31T12:24:43;19.70;99.90
54518;DHT22;40423;53.176;6.002;2023-07-31T12:27:13;19.70;99.90
54518;DHT22;40423;53.176;6.002;2023-07-31T12:29:41;19.70;99.90
54518;DHT22;40423;53.176;6.002;2023-07-31T12:32:24;19.70;99.90
54518;DHT22;40423;53.176;6.002;2023-07-31T12:34:50;19.80;99.90
54518;DHT22;40423;53.176;6.002;2023-07-31T12:37:16;19.80;99.90
54518;DHT22;40423;53.176;6.002;2023-07-31T12:39:42;19.70;99.90
54518;DHT22;40423;53.176;6.002;2023-07-31T12:42:08;19.70;99.90
54518;DHT22;40423;53.176;6.002;2023-07-31T12:44:33;19.80;99.90
54518;DHT22;40423;53.176;6.002;2023-07-31T12:46:59;19.70;99.90
54518;DHT22;40423;53.176;6.002;2023-07-31T12:49:25;19.70;99.90
54518;DHT22;40423;53.176;6.002;2023-07-31T12:51:50;19.80;99.90
54518;DHT22;40423;53.176;6.002;2023-07-31T12:54:16;19.80;99.90
54518;DHT22;40423;53.176;6.002;2023-07-31T12:56:42;19.80;99.90
54518;DHT22;40423;53.176;6.002;2023-07-31T12:59:08;19.90;99.90
54518;DHT22;40423;53.176;6.002;2023-07-31T13:01:33;19.80;99.90
54518;DHT22;40423;53.176;6.002;2023-07-31T13:03:59;19.80;99.90
54518;DHT22;40423;53.176;6.002;2023-07-31T13:06:25;19.80;99.90
54518;DHT22;40423;53.176;6.002;2023-07-31T13:08:51;19.90;99.90
54518;DHT22;40423;53.176;6.002;2023-07-31T13:11:17;19.90;99.90
54518;DHT22;40423;53.176;6.002;2023-07-31T13:13:43;19.90;99.90
54518;DHT22;40423;53.176;6.002;2023-07-31T13:16:08;19.90;99.90
54518;DHT22;40423;53.176;6.002;2023-07-31T13:18:34;20.00;99.90
54518;DHT22;40423;53.176;6.002;2023-07-31T13:21:00;20.00;99.90
54518;DHT22;40423;53.176;6.002;2023-07-31T13:23:25;20.10;99.90
54518;DHT22;40423;53.176;6.002;2023-07-31T13:25:51;20.30;99.90
54518;DHT22;40423;53.176;6.002;2023-07-31T13:28:17;20.30;99.90
54518;DHT22;40423;53.176;6.002;2023-07-31T13:30:42;20.40;99.90
54518;DHT22;40423;53.176;6.002;2023-07-31T13:33:08;20.40;99.90
54518;DHT22;40423;53.176;6.002;2023-07-31T13:35:34;20.50;99.90
54518;DHT22;40423;53.176;6.002;2023-07-31T13:37:59;20.50;99.90
54518;DHT22;40423;53.176;6.002;2023-07-31T13:40:25;20.50;99.90
54518;DHT22;40423;53.176;6.002;2023-07-31T13:42:51;20.40;99.90
54518;DHT22;40423;53.176;6.002;2023-07-31T13:45:18;20.40;99.90
54518;DHT22;40423;53.176;6.002;2023-07-31T13:47:43;20.40;99.90
54518;DHT22;40423;53.176;6.002;2023-07-31T13:53:50;20.40;99.90
54518;DHT22;40423;53.176;6.002;2023-07-31T13:56:15;20.10;99.90
54518;DHT22;40423;53.176;6.002;2023-07-31T13:58:42;20.00;99.90
54518;DHT22;40423;53.176;6.002;2023-07-31T14:01:07;19.90;99.90
54518;DHT22;40423;53.176;6.002;2023-07-31T14:03:33;19.90;99.90
54518;DHT22;40423;53.176;6.002;2023-07-31T14:05:59;20.00;99.90
54518;DHT22;40423;53.176;6.002;2023-07-31T14:08:24;20.00;99.90
54518;DHT22;40423;53.176;6.002;2023-07-31T14:10:50;20.10;99.90
54518;DHT22;40423;53.176;6.002;2023-07-31T14:13:16;20.10;99.90
54518;DHT22;40423;53.176;6.002;2023-07-31T14:15:42;20.10;99.90
54518;DHT22;40423;53.176;6.002;2023-07-31T14:18:11;20.10;99.90
54518;DHT22;40423;53.176;6.002;2023-07-31T14:20:36;20.10;99.90
54518;DHT22;40423;53.176;6.002;2023-07-31T14:23:03;20.20;99.90
54518;DHT22;40423;53.176;6.002;2023-07-31T14:25:29;20.20;99.90
54518;DHT22;40423;53.176;6.002;2023-07-31T14:27:54;20.20;99.90
54518;DHT22;40423;53.176;6.002;2023-07-31T14:30:20;20.20;99.90
54518;DHT22;40423;53.176;6.002;2023-07-31T14:32:46;20.20;99.90
54518;DHT22;40423;53.176;6.002;2023-07-31T14:35:12;20.10;99.90
54518;DHT22;40423;53.176;6.002;2023-07-31T14:37:44;20.10;99.90
54518;DHT22;40423;53.176;6.002;2023-07-31T14:40:11;20.00;99.90
54518;DHT22;40423;53.176;6.002;2023-07-31T14:42:38;19.90;99.90
54518;DHT22;40423;53.176;6.002;2023-07-31T14:45:05;19.90;99.90
54518;DHT22;40423;53.176;6.002;2023-07-31T14:47:31;19.90;99.90
54518;DHT22;40423;53.176;6.002;2023-07-31T14:49:58;19.90;99.90
54518;DHT22;40423;53.176;6.002;2023-07-31T14:52:24;20.00;99.90
54518;DHT22;40423;53.176;6.002;2023-07-31T14:54:49;20.00;99.90
54518;DHT22;40423;53.176;6.002;2023-07-31T14:57:15;19.90;99.90
54518;DHT22;40423;53.176;6.002;2023-07-31T14:59:41;19.90;99.90
54518;DHT22;40423;53.176;6.002;2023-07-31T15:02:09;19.90;99.90
54518;DHT22;40423;53.176;6.002;2023-07-31T15:04:35;19.90;99.90
54518;DHT22;40423;53.176;6.002;2023-07-31T15:07:01;19.90;99.90
54518;DHT22;40423;53.176;6.002;2023-07-31T15:09:26;19.80;99.90
54518;DHT22;40423;53.176;6.002;2023-07-31T15:11:52;19.90;99.90
54518;DHT22;40423;53.176;6.002;2023-07-31T15:14:18;19.90;99.90
54518;DHT22;40423;53.176;6.002;2023-07-31T15:16:44;19.80;99.90
54518;DHT22;40423;53.176;6.002;2023-07-31T15:19:10;19.90;99.90
54518;DHT22;40423;53.176;6.002;2023-07-31T15:21:37;19.90;99.90
54518;DHT22;40423;53.176;6.002;2023-07-31T15:24:03;19.90;99.90
54518;DHT22;40423;53.176;6.002;2023-07-31T15:26:28;19.90;99.90
54518;DHT22;40423;53.176;6.002;2023-07-31T15:29:07;19.90;99.90
54518;DHT22;40423;53.176;6.002;2023-07-31T15:31:41;19.90;99.90
54518;DHT22;40423;53.176;6.002;2023-07-31T15:34:07;19.90;99.90
54518;DHT22;40423;53.176;6.002;2023-07-31T15:36:33;19.90;99.90
54518;DHT22;40423;53.176;6.002;2023-07-31T15:38:59;19.80;99.90
54518;DHT22;40423;53.176;6.002;2023-07-31T15:41:24;19.90;99.90